sensor_id;sensor_type;location;lat;lon;timestamp;pressure;altitude;pressure_sealevel;temperature;humidity
63819;BME280;49970;54.976;73.248;2022-09-12T00:01:19;100312.69;;;4.83;83.50
63819;BME280;49970;54.976;73.248;2022-09-12T00:03:46;100319.09;;;4.78;83.31
63819;BME280;49970;54.976;73.248;2022-09-12T00:06:25;100327.03;;;4.76;83.49
63819;BME280;49970;54.976;73.248;2022-09-12T00:08:57;100315.19;;;4.67;83.62
63819;BME280;49970;54.976;73.248;2022-09-12T00:11:25;100325.63;;;4.69;84.10
63819;BME280;49970;54.976;73.248;2022-09-12T00:14:00;100336.38;;;4.63;83.73
63819;BME280;49970;54.976;73.248;2022-09-12T00:16:28;100340.16;;;4.57;84.07
63819;BME280;49970;54.976;73.248;2022-09-12T00:19:04;100341.44;;;4.48;84.21
63819;BME280;49970;54.976;73.248;2022-09-12T00:21:33;100352.91;;;4.46;85.23
63819;BME280;49970;54.976;73.248;2022-09-12T00:24:00;100348.84;;;4.39;85.35
63819;BME280;49970;54.976;73.248;2022-09-12T00:26:27;100356.72;;;4.39;85.19
63819;BME280;49970;54.976;73.248;2022-09-12T00:28:53;100350.31;;;4.25;85.42
63819;BME280;49970;54.976;73.248;2022-09-12T00:31:22;100371.88;;;4.32;85.29
63819;BME280;49970;54.976;73.248;2022-09-12T00:33:49;100377.34;;;4.28;85.25
63819;BME280;49970;54.976;73.248;2022-09-12T00:36:19;100378.91;;;4.32;85.03
63819;BME280;49970;54.976;73.248;2022-09-12T00:38:52;100391.22;;;4.30;84.98
63819;BME280;49970;54.976;73.248;2022-09-12T00:41:29;100395.09;;;4.21;85.32
63819;BME280;49970;54.976;73.248;2022-09-12T00:47:12;100402.09;;;4.00;85.77
63819;BME280;49970;54.976;73.248;2022-09-12T00:50:01;100405.84;;;3.94;85.53
63819;BME280;49970;54.976;73.248;2022-09-12T00:52:51;100424.19;;;3.94;85.50
63819;BME280;49970;54.976;73.248;2022-09-12T00:55:50;100423.59;;;3.88;85.89
63819;BME280;49970;54.976;73.248;2022-09-12T01:03:20;100441.28;;;3.83;86.01
63819;BME280;49970;54.976;73.248;2022-09-12T01:06:11;100438.53;;;3.86;85.87
63819;BME280;49970;54.976;73.248;2022-09-12T01:08:50;100456.69;;;3.90;86.46
63819;BME280;49970;54.976;73.248;2022-09-12T01:11:23;100453.94;;;3.93;86.57
63819;BME280;49970;54.976;73.248;2022-09-12T01:13:54;100455.63;;;3.94;86.37
63819;BME280;49970;54.976;73.248;2022-09-12T01:16:25;100464.16;;;3.99;86.49
63819;BME280;49970;54.976;73.248;2022-09-12T01:22:04;100480.63;;;4.03;86.96
63819;BME280;49970;54.976;73.248;2022-09-12T01:25:08;100467.81;;;3.95;86.35
63819;BME280;49970;54.976;73.248;2022-09-12T01:30:44;100492.47;;;4.12;86.72
63819;BME280;49970;54.976;73.248;2022-09-12T01:33:17;100499.19;;;4.19;86.58
63819;BME280;49970;54.976;73.248;2022-09-12T01:39:25;100503.38;;;4.23;85.94
63819;BME280;49970;54.976;73.248;2022-09-12T01:42:39;100510.00;;;4.32;86.18
63819;BME280;49970;54.976;73.248;2022-09-12T01:45:23;100513.34;;;4.35;86.17
63819;BME280;49970;54.976;73.248;2022-09-12T01:48:21;100517.59;;;4.38;85.99
63819;BME280;49970;54.976;73.248;2022-09-12T01:53:58;100528.41;;;4.50;85.71
63819;BME280;49970;54.976;73.248;2022-09-12T01:56:32;100535.97;;;4.58;86.35
63819;BME280;49970;54.976;73.248;2022-09-12T01:59:44;100536.63;;;4.63;86.19
63819;BME280;49970;54.976;73.248;2022-09-12T02:04:57;100539.53;;;4.78;85.70
63819;BME280;49970;54.976;73.248;2022-09-12T02:07:54;100556.69;;;4.85;85.55
63819;BME280;49970;54.976;73.248;2022-09-12T02:10:28;100552.44;;;4.82;85.46
63819;BME280;49970;54.976;73.248;2022-09-12T02:12:59;100555.50;;;4.92;84.85
63819;BME280;49970;54.976;73.248;2022-09-12T02:15:42;100560.28;;;5.03;84.97
63819;BME280;49970;54.976;73.248;2022-09-12T02:18:13;100563.47;;;5.09;85.43
63819;BME280;49970;54.976;73.248;2022-09-12T02:20:47;100563.28;;;5.14;85.19
63819;BME280;49970;54.976;73.248;2022-09-12T02:23:23;100575.16;;;5.22;84.51
63819;BME280;49970;54.976;73.248;2022-09-12T02:26:09;100576.66;;;5.28;84.98
63819;BME280;49970;54.976;73.248;2022-09-12T02:28:42;100583.28;;;5.37;84.15
63819;BME280;49970;54.976;73.248;2022-09-12T02:31:31;100583.84;;;5.43;84.25
63819;BME280;49970;54.976;73.248;2022-09-12T02:34:26;100589.66;;;5.50;83.51
63819;BME280;49970;54.976;73.248;2022-09-12T02:39:45;100593.28;;;5.66;83.13
63819;BME280;49970;54.976;73.248;2022-09-12T02:42:12;100601.31;;;5.82;83.17
63819;BME280;49970;54.976;73.248;2022-09-12T02:44:38;100609.53;;;5.95;82.57
63819;BME280;49970;54.976;73.248;2022-09-12T02:47:14;100609.72;;;6.09;82.41
63819;BME280;49970;54.976;73.248;2022-09-12T02:49:43;100604.78;;;6.20;81.51
63819;BME280;49970;54.976;73.248;2022-09-12T02:52:09;100620.59;;;6.38;81.31
63819;BME280;49970;54.976;73.248;2022-09-12T02:54:45;100618.00;;;6.55;81.15
63819;BME280;49970;54.976;73.248;2022-09-12T02:57:20;100625.28;;;6.67;80.23
63819;BME280;49970;54.976;73.248;2022-09-12T02:59:47;100623.97;;;6.76;80.09
63819;BME280;49970;54.976;73.248;2022-09-12T03:11:06;100636.53;;;7.39;78.64
63819;BME280;49970;54.976;73.248;2022-09-12T03:27:43;100669.84;;;8.22;76.04
63819;BME280;49970;54.976;73.248;2022-09-12T03:30:11;100658.59;;;8.18;74.62
63819;BME280;49970;54.976;73.248;2022-09-12T03:32:42;100673.94;;;8.43;73.82
63819;BME280;49970;54.976;73.248;2022-09-12T03:35:21;100677.25;;;8.47;73.38
63819;BME280;49970;54.976;73.248;2022-09-12T03:37:49;100686.03;;;8.63;72.49
63819;BME280;49970;54.976;73.248;2022-09-12T03:40:15;100688.97;;;8.73;72.09
63819;BME280;49970;54.976;73.248;2022-09-12T03:42:46;100695.94;;;8.90;71.97
63819;BME280;49970;54.976;73.248;2022-09-12T03:45:18;100694.38;;;9.02;72.28
63819;BME280;49970;54.976;73.248;2022-09-12T03:47:44;100696.66;;;9.08;70.53
63819;BME280;49970;54.976;73.248;2022-09-12T03:50:10;100702.25;;;9.17;69.64
63819;BME280;49970;54.976;73.248;2022-09-12T03:52:37;100702.94;;;9.21;69.64
63819;BME280;49970;54.976;73.248;2022-09-12T03:55:03;100708.22;;;9.35;69.88
63819;BME280;49970;54.976;73.248;2022-09-12T03:57:30;100706.38;;;9.52;70.20
63819;BME280;49970;54.976;73.248;2022-09-12T04:00:07;100708.09;;;9.67;70.25
63819;BME280;49970;54.976;73.248;2022-09-12T04:02:47;100711.13;;;9.75;66.52
63819;BME280;49970;54.976;73.248;2022-09-12T04:05:24;100713.59;;;9.78;66.36
63819;BME280;49970;54.976;73.248;2022-09-12T04:07:51;100717.25;;;9.90;66.30
63819;BME280;49970;54.976;73.248;2022-09-12T04:10:17;100700.16;;;9.95;65.03
63819;BME280;49970;54.976;73.248;2022-09-12T04:16:14;100726.31;;;10.14;61.90
63819;BME280;49970;54.976;73.248;2022-09-12T04:18:41;100713.09;;;10.14;62.58
63819;BME280;49970;54.976;73.248;2022-09-12T04:21:17;100728.03;;;10.30;61.75
63819;BME280;49970;54.976;73.248;2022-09-12T04:23:44;100729.75;;;10.31;60.37
63819;BME280;49970;54.976;73.248;2022-09-12T04:26:20;100733.16;;;10.33;61.19
63819;BME280;49970;54.976;73.248;2022-09-12T04:28:47;100745.41;;;10.48;60.03
63819;BME280;49970;54.976;73.248;2022-09-12T04:31:17;100740.56;;;10.55;60.18
63819;BME280;49970;54.976;73.248;2022-09-12T04:33:45;100745.28;;;10.64;60.31
63819;BME280;49970;54.976;73.248;2022-09-12T04:36:14;100745.75;;;10.70;60.37
63819;BME280;49970;54.976;73.248;2022-09-12T04:38:51;100734.25;;;10.70;59.75
63819;BME280;49970;54.976;73.248;2022-09-12T04:41:23;100744.94;;;10.83;59.98
63819;BME280;49970;54.976;73.248;2022-09-12T04:44:03;100756.44;;;10.96;59.36
63819;BME280;49970;54.976;73.248;2022-09-12T04:46:50;100751.13;;;10.96;58.76
63819;BME280;49970;54.976;73.248;2022-09-12T04:49:31;100763.91;;;11.04;59.07
63819;BME280;49970;54.976;73.248;2022-09-12T04:51:57;100771.53;;;11.08;58.27
63819;BME280;49970;54.976;73.248;2022-09-12T04:54:24;100760.19;;;11.06;58.45
63819;BME280;49970;54.976;73.248;2022-09-12T04:56:57;100773.00;;;11.00;58.08
63819;BME280;49970;54.976;73.248;2022-09-12T04:59:33;100777.34;;;11.01;58.39
63819;BME280;49970;54.976;73.248;2022-09-12T05:02:00;100772.59;;;11.06;58.29
63819;BME280;49970;54.976;73.248;2022-09-12T05:04:27;100775.03;;;11.09;57.67
63819;BME280;49970;54.976;73.248;2022-09-12T05:06:53;100784.53;;;11.26;57.69
63819;BME280;49970;54.976;73.248;2022-09-12T05:09:20;100783.56;;;11.27;57.24
63819;BME280;49970;54.976;73.248;2022-09-12T05:11:46;100782.53;;;11.29;57.11
63819;BME280;49970;54.976;73.248;2022-09-12T05:14:13;100790.25;;;11.32;56.68
63819;BME280;49970;54.976;73.248;2022-09-12T05:16:48;100795.25;;;11.37;57.14
63819;BME280;49970;54.976;73.248;2022-09-12T05:19:24;100793.06;;;11.43;56.77
63819;BME280;49970;54.976;73.248;2022-09-12T05:21:50;100801.66;;;11.47;57.47
63819;BME280;49970;54.976;73.248;2022-09-12T05:24:26;100790.53;;;11.55;58.12
63819;BME280;49970;54.976;73.248;2022-09-12T05:26:53;100813.59;;;11.67;57.63
63819;BME280;49970;54.976;73.248;2022-09-12T05:29:19;100801.56;;;11.61;57.28
63819;BME280;49970;54.976;73.248;2022-09-12T05:31:46;100813.16;;;11.73;57.77
63819;BME280;49970;54.976;73.248;2022-09-12T05:34:15;100819.97;;;11.77;57.19
63819;BME280;49970;54.976;73.248;2022-09-12T05:36:41;100817.38;;;11.50;56.90
63819;BME280;49970;54.976;73.248;2022-09-12T05:39:08;100751.78;;;11.00;57.35
63819;BME280;49970;54.976;73.248;2022-09-12T05:41:38;100818.75;;;11.56;58.08
63819;BME280;49970;54.976;73.248;2022-09-12T05:44:06;100822.47;;;11.66;57.72
63819;BME280;49970;54.976;73.248;2022-09-12T05:46:38;100818.47;;;11.73;56.80
63819;BME280;49970;54.976;73.248;2022-09-12T05:49:09;100820.72;;;11.79;57.63
63819;BME280;49970;54.976;73.248;2022-09-12T05:51:39;100829.28;;;11.70;56.72
63819;BME280;49970;54.976;73.248;2022-09-12T05:54:08;100835.66;;;11.67;56.72
63819;BME280;49970;54.976;73.248;2022-09-12T05:56:41;100834.19;;;11.76;56.93
63819;BME280;49970;54.976;73.248;2022-09-12T05:59:13;100834.97;;;11.91;58.00
63819;BME280;49970;54.976;73.248;2022-09-12T06:01:39;100837.34;;;11.95;58.10
63819;BME280;49970;54.976;73.248;2022-09-12T06:04:06;100842.41;;;11.99;58.04
63819;BME280;49970;54.976;73.248;2022-09-12T06:06:41;100840.00;;;11.95;57.39
63819;BME280;49970;54.976;73.248;2022-09-12T06:09:10;100849.13;;;12.04;56.90
63819;BME280;49970;54.976;73.248;2022-09-12T06:11:38;100848.16;;;12.05;57.11
63819;BME280;49970;54.976;73.248;2022-09-12T06:14:09;100848.03;;;11.94;56.25
63819;BME280;49970;54.976;73.248;2022-09-12T06:16:36;100853.34;;;11.94;56.29
63819;BME280;49970;54.976;73.248;2022-09-12T06:19:25;100852.38;;;11.95;55.48
63819;BME280;49970;54.976;73.248;2022-09-12T06:21:53;100846.75;;;12.00;55.41
63819;BME280;49970;54.976;73.248;2022-09-12T06:24:20;100820.00;;;11.90;56.20
63819;BME280;49970;54.976;73.248;2022-09-12T06:26:47;100847.97;;;12.21;56.58
63819;BME280;49970;54.976;73.248;2022-09-12T06:29:14;100846.56;;;12.28;55.89
63819;BME280;49970;54.976;73.248;2022-09-12T06:31:41;100844.56;;;12.19;56.01
63819;BME280;49970;54.976;73.248;2022-09-12T06:34:10;100860.16;;;12.11;56.50
63819;BME280;49970;54.976;73.248;2022-09-12T06:36:39;100855.16;;;12.06;55.37
63819;BME280;49970;54.976;73.248;2022-09-12T06:39:26;100858.34;;;12.11;54.80
63819;BME280;49970;54.976;73.248;2022-09-12T06:41:52;100860.16;;;12.24;54.91
63819;BME280;49970;54.976;73.248;2022-09-12T06:44:31;100850.06;;;12.41;54.83
63819;BME280;49970;54.976;73.248;2022-09-12T06:46:57;100856.97;;;12.57;54.55
63819;BME280;49970;54.976;73.248;2022-09-12T06:49:24;100853.47;;;12.56;54.94
63819;BME280;49970;54.976;73.248;2022-09-12T06:51:50;100868.25;;;12.48;54.87
63819;BME280;49970;54.976;73.248;2022-09-12T06:54:16;100872.06;;;12.31;54.96
63819;BME280;49970;54.976;73.248;2022-09-12T06:56:43;100871.97;;;12.19;55.28
63819;BME280;49970;54.976;73.248;2022-09-12T06:59:09;100878.94;;;12.08;55.22
63819;BME280;49970;54.976;73.248;2022-09-12T07:01:46;100874.50;;;11.95;55.52
63819;BME280;49970;54.976;73.248;2022-09-12T07:04:12;100876.59;;;11.90;55.58
63819;BME280;49970;54.976;73.248;2022-09-12T07:06:40;100866.78;;;11.78;56.25
63819;BME280;49970;54.976;73.248;2022-09-12T07:09:09;100876.53;;;11.78;55.81
63819;BME280;49970;54.976;73.248;2022-09-12T07:11:37;100879.19;;;11.78;56.12
63819;BME280;49970;54.976;73.248;2022-09-12T07:14:06;100879.97;;;11.80;55.93
63819;BME280;49970;54.976;73.248;2022-09-12T07:16:36;100883.06;;;11.86;56.11
63819;BME280;49970;54.976;73.248;2022-09-12T07:19:04;100887.13;;;11.92;54.99
63819;BME280;49970;54.976;73.248;2022-09-12T07:21:30;100893.38;;;12.04;54.72
63819;BME280;49970;54.976;73.248;2022-09-12T07:23:58;100884.06;;;12.11;54.41
63819;BME280;49970;54.976;73.248;2022-09-12T07:26:27;100885.56;;;12.15;54.99
63819;BME280;49970;54.976;73.248;2022-09-12T07:29:15;100899.16;;;12.23;54.12
63819;BME280;49970;54.976;73.248;2022-09-12T07:33:07;100893.84;;;12.23;54.28
63819;BME280;49970;54.976;73.248;2022-09-12T07:59:56;100919.34;;;12.77;53.33
63819;BME280;49970;54.976;73.248;2022-09-12T08:03:47;100924.63;;;13.02;53.17
63819;BME280;49970;54.976;73.248;2022-09-12T08:07:38;100925.97;;;13.08;52.93
63819;BME280;49970;54.976;73.248;2022-09-12T08:11:29;100926.00;;;12.95;53.24
63819;BME280;49970;54.976;73.248;2022-09-12T08:19:09;100933.50;;;12.52;52.40
63819;BME280;49970;54.976;73.248;2022-09-12T08:26:50;100941.78;;;12.34;51.88
63819;BME280;49970;54.976;73.248;2022-09-12T08:34:30;100941.25;;;12.29;53.31
63819;BME280;49970;54.976;73.248;2022-09-12T08:38:47;100945.28;;;12.35;53.60
63819;BME280;49970;54.976;73.248;2022-09-12T08:53:40;100965.59;;;12.49;55.32
63819;BME280;49970;54.976;73.248;2022-09-12T08:57:31;100974.00;;;12.55;54.88
63819;BME280;49970;54.976;73.248;2022-09-12T09:05:16;100980.06;;;12.70;53.55
63819;BME280;49970;54.976;73.248;2022-09-12T09:08:46;100985.38;;;12.83;53.42
63819;BME280;49970;54.976;73.248;2022-09-12T09:16:30;100996.91;;;13.20;52.06
63819;BME280;49970;54.976;73.248;2022-09-12T09:20:34;100999.19;;;13.13;52.73
63819;BME280;49970;54.976;73.248;2022-09-12T09:24:54;101006.00;;;12.92;52.51
63819;BME280;49970;54.976;73.248;2022-09-12T09:29:21;101003.66;;;12.62;53.15
63819;BME280;49970;54.976;73.248;2022-09-12T09:33:09;101012.75;;;12.45;53.71
63819;BME280;49970;54.976;73.248;2022-09-12T09:40:22;101010.09;;;12.32;55.19
63819;BME280;49970;54.976;73.248;2022-09-12T13:26:21;101162.16;;;11.37;65.87
63819;BME280;49970;54.976;73.248;2022-09-12T13:28:48;101172.09;;;11.34;66.62
63819;BME280;49970;54.976;73.248;2022-09-12T13:31:26;101172.44;;;11.28;66.85
63819;BME280;49970;54.976;73.248;2022-09-12T13:33:58;101177.19;;;11.22;66.86
63819;BME280;49970;54.976;73.248;2022-09-12T13:49:31;101188.38;;;10.97;68.22
63819;BME280;49970;54.976;73.248;2022-09-12T13:52:16;101199.94;;;10.96;68.61
63819;BME280;49970;54.976;73.248;2022-09-12T13:54:45;101188.50;;;10.96;68.25
63819;BME280;49970;54.976;73.248;2022-09-12T13:57:34;101203.34;;;10.98;68.40
63819;BME280;49970;54.976;73.248;2022-09-12T14:00:18;101204.97;;;11.01;67.86
63819;BME280;49970;54.976;73.248;2022-09-12T14:02:46;101199.94;;;10.96;68.04
63819;BME280;49970;54.976;73.248;2022-09-12T14:05:19;101203.06;;;11.03;66.44
63819;BME280;49970;54.976;73.248;2022-09-12T14:07:57;101221.38;;;11.08;66.15
63819;BME280;49970;54.976;73.248;2022-09-12T14:10:38;101210.97;;;11.05;66.88
63819;BME280;49970;54.976;73.248;2022-09-12T14:13:25;101221.38;;;11.08;66.73
63819;BME280;49970;54.976;73.248;2022-09-12T14:15:58;101224.88;;;11.08;66.61
63819;BME280;49970;54.976;73.248;2022-09-12T14:18:28;101223.25;;;11.06;66.89
63819;BME280;49970;54.976;73.248;2022-09-12T14:21:04;101224.38;;;11.02;66.97
63819;BME280;49970;54.976;73.248;2022-09-12T14:23:40;101225.34;;;11.01;66.96
63819;BME280;49970;54.976;73.248;2022-09-12T14:26:12;101226.88;;;10.89;67.76
63819;BME280;49970;54.976;73.248;2022-09-12T14:28:44;101243.81;;;10.86;67.86
63819;BME280;49970;54.976;73.248;2022-09-12T14:33:47;101252.81;;;10.68;68.38
63819;BME280;49970;54.976;73.248;2022-09-12T14:36:34;101255.63;;;10.65;68.02
63819;BME280;49970;54.976;73.248;2022-09-12T14:39:04;101251.28;;;10.64;67.98
63819;BME280;49970;54.976;73.248;2022-09-12T14:41:37;101246.94;;;10.63;67.94
63819;BME280;49970;54.976;73.248;2022-09-12T14:44:08;101250.53;;;10.62;68.45
63819;BME280;49970;54.976;73.248;2022-09-12T14:46:39;101255.47;;;10.52;68.51
63819;BME280;49970;54.976;73.248;2022-09-12T14:49:17;101268.63;;;10.38;69.48
63819;BME280;49970;54.976;73.248;2022-09-12T14:52:03;101267.50;;;10.26;70.01
63819;BME280;49970;54.976;73.248;2022-09-12T14:54:38;101264.28;;;10.19;69.06
63819;BME280;49970;54.976;73.248;2022-09-12T14:57:33;101278.13;;;10.09;69.51
63819;BME280;49970;54.976;73.248;2022-09-12T15:02:43;101273.94;;;10.05;70.13
63819;BME280;49970;54.976;73.248;2022-09-12T15:07:51;101282.19;;;9.98;70.58
63819;BME280;49970;54.976;73.248;2022-09-12T15:15:57;101296.22;;;10.01;69.59
63819;BME280;49970;54.976;73.248;2022-09-12T15:18:31;101291.16;;;9.96;69.25
63819;BME280;49970;54.976;73.248;2022-09-12T15:21:01;101281.75;;;9.73;69.49
63819;BME280;49970;54.976;73.248;2022-09-12T15:23:34;101306.28;;;9.59;70.50
63819;BME280;49970;54.976;73.248;2022-09-12T15:26:03;101305.59;;;9.56;70.93
63819;BME280;49970;54.976;73.248;2022-09-12T15:28:30;101306.22;;;9.43;71.36
63819;BME280;49970;54.976;73.248;2022-09-12T15:31:00;101306.91;;;9.47;72.41
63819;BME280;49970;54.976;73.248;2022-09-12T15:33:28;101318.09;;;9.52;72.30
63819;BME280;49970;54.976;73.248;2022-09-12T15:35:54;101312.81;;;9.52;72.32
63819;BME280;49970;54.976;73.248;2022-09-12T15:38:25;101310.34;;;9.49;72.41
63819;BME280;49970;54.976;73.248;2022-09-12T15:40:52;101311.25;;;9.48;72.30
63819;BME280;49970;54.976;73.248;2022-09-12T15:43:19;101320.84;;;9.51;71.94
63819;BME280;49970;54.976;73.248;2022-09-12T15:45:47;101321.59;;;9.53;72.16
63819;BME280;49970;54.976;73.248;2022-09-12T15:48:13;101321.78;;;9.50;72.47
63819;BME280;49970;54.976;73.248;2022-09-12T15:50:40;101316.09;;;9.40;72.64
63819;BME280;49970;54.976;73.248;2022-09-12T15:53:13;101326.41;;;9.44;72.17
63819;BME280;49970;54.976;73.248;2022-09-12T15:55:41;101329.38;;;9.38;71.91
63819;BME280;49970;54.976;73.248;2022-09-12T15:58:12;101331.09;;;9.39;72.04
63819;BME280;49970;54.976;73.248;2022-09-12T16:00:39;101315.59;;;9.32;71.85
63819;BME280;49970;54.976;73.248;2022-09-12T16:03:05;101337.47;;;9.35;71.32
63819;BME280;49970;54.976;73.248;2022-09-12T16:05:41;101330.56;;;9.33;70.83
63819;BME280;49970;54.976;73.248;2022-09-12T16:08:08;101330.13;;;9.23;70.96
63819;BME280;49970;54.976;73.248;2022-09-12T16:10:34;101337.22;;;9.22;71.30
63819;BME280;49970;54.976;73.248;2022-09-12T16:13:10;101332.16;;;9.18;71.19
63819;BME280;49970;54.976;73.248;2022-09-12T16:15:36;101333.25;;;9.14;71.41
63819;BME280;49970;54.976;73.248;2022-09-12T16:18:13;101327.56;;;9.04;72.28
63819;BME280;49970;54.976;73.248;2022-09-12T16:20:39;101325.91;;;9.02;72.34
63819;BME280;49970;54.976;73.248;2022-09-12T16:23:06;101336.69;;;8.97;72.22
63819;BME280;49970;54.976;73.248;2022-09-12T16:25:32;101335.56;;;8.84;72.94
63819;BME280;49970;54.976;73.248;2022-09-12T16:27:58;101333.91;;;8.81;72.47
63819;BME280;49970;54.976;73.248;2022-09-12T16:30:26;101341.63;;;8.86;73.25
63819;BME280;49970;54.976;73.248;2022-09-12T16:32:52;101334.72;;;8.83;72.47
63819;BME280;49970;54.976;73.248;2022-09-12T16:35:23;101342.28;;;8.91;72.79
63819;BME280;49970;54.976;73.248;2022-09-12T16:37:54;101340.50;;;8.91;73.35
63819;BME280;49970;54.976;73.248;2022-09-12T16:40:21;101337.78;;;8.93;73.65
63819;BME280;49970;54.976;73.248;2022-09-12T16:42:58;101343.69;;;8.98;72.67
63819;BME280;49970;54.976;73.248;2022-09-12T16:45:24;101341.75;;;9.02;73.39
63819;BME280;49970;54.976;73.248;2022-09-12T16:47:50;101331.41;;;8.97;73.19
63819;BME280;49970;54.976;73.248;2022-09-12T16:50:23;101343.06;;;8.93;72.42
63819;BME280;49970;54.976;73.248;2022-09-12T16:52:53;101350.13;;;8.92;73.39
63819;BME280;49970;54.976;73.248;2022-09-12T16:55:20;101351.06;;;8.91;73.13
63819;BME280;49970;54.976;73.248;2022-09-12T16:57:57;101351.34;;;8.85;73.48
63819;BME280;49970;54.976;73.248;2022-09-12T17:00:23;101349.84;;;8.80;73.88
63819;BME280;49970;54.976;73.248;2022-09-12T17:03:03;101356.00;;;8.80;73.59
63819;BME280;49970;54.976;73.248;2022-09-12T17:05:29;101355.91;;;8.82;73.58
63819;BME280;49970;54.976;73.248;2022-09-12T17:08:00;101343.22;;;8.71;73.34
63819;BME280;49970;54.976;73.248;2022-09-12T17:10:27;101358.50;;;8.83;73.22
63819;BME280;49970;54.976;73.248;2022-09-12T17:13:04;101364.63;;;8.84;72.09
63819;BME280;49970;54.976;73.248;2022-09-12T17:15:40;101360.34;;;8.81;71.43
63819;BME280;49970;54.976;73.248;2022-09-12T17:18:09;101366.91;;;8.72;72.58
63819;BME280;49970;54.976;73.248;2022-09-12T17:20:35;101357.28;;;8.71;72.23
63819;BME280;49970;54.976;73.248;2022-09-12T17:23:01;101368.91;;;8.67;71.85
63819;BME280;49970;54.976;73.248;2022-09-12T17:25:33;101371.63;;;8.66;71.68
63819;BME280;49970;54.976;73.248;2022-09-12T17:27:59;101371.91;;;8.60;72.25
63819;BME280;49970;54.976;73.248;2022-09-12T17:30:36;101373.81;;;8.37;73.24
63819;BME280;49970;54.976;73.248;2022-09-12T17:33:02;101374.19;;;8.28;73.53
63819;BME280;49970;54.976;73.248;2022-09-12T17:35:28;101377.75;;;8.27;73.91
63819;BME280;49970;54.976;73.248;2022-09-12T17:37:54;101382.97;;;8.29;73.88
63819;BME280;49970;54.976;73.248;2022-09-12T17:40:26;101378.75;;;8.24;74.23
63819;BME280;49970;54.976;73.248;2022-09-12T17:42:57;101388.31;;;8.07;74.29
63819;BME280;49970;54.976;73.248;2022-09-12T17:45:23;101382.72;;;7.94;75.24
63819;BME280;49970;54.976;73.248;2022-09-12T17:47:49;101391.84;;;7.87;75.53
63819;BME280;49970;54.976;73.248;2022-09-12T17:50:15;101377.25;;;7.78;75.25
63819;BME280;49970;54.976;73.248;2022-09-12T17:52:45;101392.72;;;7.86;74.89
63819;BME280;49970;54.976;73.248;2022-09-12T17:55:12;101405.47;;;7.76;75.01
63819;BME280;49970;54.976;73.248;2022-09-12T17:57:40;101404.59;;;7.76;75.15
63819;BME280;49970;54.976;73.248;2022-09-12T18:00:07;101402.94;;;7.73;74.97
63819;BME280;49970;54.976;73.248;2022-09-12T18:02:42;101403.47;;;7.81;74.35
63819;BME280;49970;54.976;73.248;2022-09-12T18:05:17;101398.16;;;7.83;74.22
63819;BME280;49970;54.976;73.248;2022-09-12T18:07:43;101400.06;;;7.79;73.60
63819;BME280;49970;54.976;73.248;2022-09-12T18:10:09;101402.09;;;7.72;73.30
63819;BME280;49970;54.976;73.248;2022-09-12T18:12:46;101397.13;;;7.65;73.63
63819;BME280;49970;54.976;73.248;2022-09-12T18:15:13;101389.78;;;7.51;74.19
63819;BME280;49970;54.976;73.248;2022-09-12T18:17:50;101395.03;;;7.53;74.54
63819;BME280;49970;54.976;73.248;2022-09-12T18:20:16;101402.69;;;7.37;75.03
63819;BME280;49970;54.976;73.248;2022-09-12T18:22:42;101413.53;;;7.29;75.54
63819;BME280;49970;54.976;73.248;2022-09-12T18:25:14;101411.09;;;7.24;75.74
63819;BME280;49970;54.976;73.248;2022-09-12T18:27:41;101413.84;;;7.21;75.90
63819;BME280;49970;54.976;73.248;2022-09-12T18:30:07;101415.72;;;7.18;76.28
63819;BME280;49970;54.976;73.248;2022-09-12T18:32:34;101409.59;;;7.17;76.35
63819;BME280;49970;54.976;73.248;2022-09-12T18:35:00;101399.34;;;7.10;76.53
63819;BME280;49970;54.976;73.248;2022-09-12T18:37:26;101398.47;;;7.11;76.79
63819;BME280;49970;54.976;73.248;2022-09-12T18:39:52;101407.25;;;7.10;77.03
63819;BME280;49970;54.976;73.248;2022-09-12T18:42:19;101406.41;;;7.09;76.93
63819;BME280;49970;54.976;73.248;2022-09-12T18:44:45;101401.44;;;7.02;76.73
63819;BME280;49970;54.976;73.248;2022-09-12T18:47:16;101392.19;;;6.91;76.63
63819;BME280;49970;54.976;73.248;2022-09-12T18:49:47;101404.59;;;6.88;77.37
63819;BME280;49970;54.976;73.248;2022-09-12T18:52:13;101405.88;;;6.78;77.30
63819;BME280;49970;54.976;73.248;2022-09-12T18:54:40;101406.66;;;6.80;77.29
63819;BME280;49970;54.976;73.248;2022-09-12T18:57:06;101419.66;;;6.84;76.91
63819;BME280;49970;54.976;73.248;2022-09-12T18:59:32;101424.88;;;6.86;76.68
63819;BME280;49970;54.976;73.248;2022-09-12T19:01:59;101424.81;;;6.87;76.23
63819;BME280;49970;54.976;73.248;2022-09-12T19:04:25;101433.50;;;6.89;76.38
63819;BME280;49970;54.976;73.248;2022-09-12T19:06:52;101420.34;;;6.89;76.45
63819;BME280;49970;54.976;73.248;2022-09-12T19:09:19;101424.16;;;6.82;75.95
63819;BME280;49970;54.976;73.248;2022-09-12T19:11:48;101422.72;;;6.73;76.52
63819;BME280;49970;54.976;73.248;2022-09-12T19:14:21;101409.75;;;6.67;76.77
63819;BME280;49970;54.976;73.248;2022-09-12T19:16:51;101415.03;;;6.67;77.20
63819;BME280;49970;54.976;73.248;2022-09-12T19:19:27;101409.38;;;6.55;76.88
63819;BME280;49970;54.976;73.248;2022-09-12T19:21:53;101413.13;;;6.47;77.61
63819;BME280;49970;54.976;73.248;2022-09-12T19:24:20;101410.56;;;6.46;77.61
63819;BME280;49970;54.976;73.248;2022-09-12T19:26:56;101412.41;;;6.44;78.19
63819;BME280;49970;54.976;73.248;2022-09-12T19:29:23;101415.66;;;6.51;77.75
63819;BME280;49970;54.976;73.248;2022-09-12T19:31:51;101399.19;;;6.45;77.93
63819;BME280;49970;54.976;73.248;2022-09-12T19:34:17;101407.50;;;6.33;78.21